createdAt,value
2023-04-15T00:01:22.680Z,77.26
2023-04-15T00:03:53.801Z,77.45
2023-04-15T00:06:22.789Z,75.92
2023-04-15T00:08:53.625Z,75.84
2023-04-15T00:11:22.312Z,74.95
2023-04-15T00:13:51.266Z,74.52
2023-04-15T00:16:19.990Z,75.12
2023-04-15T00:18:48.767Z,75.32
2023-04-15T00:21:17.798Z,75.78
2023-04-15T00:23:49.840Z,75.97
2023-04-15T00:26:20.815Z,76.76
2023-04-15T00:28:49.988Z,76.31
2023-04-15T00:31:19.188Z,75.12
2023-04-15T00:33:48.770Z,76.03
2023-04-15T00:36:17.731Z,76.00
2023-04-15T00:38:46.809Z,76.85
2023-04-15T00:41:15.768Z,77.40
2023-04-15T00:43:45.885Z,77.03
2023-04-15T00:46:15.677Z,73.68
2023-04-15T00:48:47.354Z,74.76
2023-04-15T00:51:16.383Z,74.33
2023-04-15T00:53:45.112Z,75.22
2023-04-15T00:56:15.172Z,74.74
2023-04-15T00:58:45.870Z,74.55
2023-04-15T01:01:14.866Z,74.91
2023-04-15T01:03:44.049Z,75.87
2023-04-15T01:06:12.910Z,75.59
2023-04-15T01:08:42.166Z,74.13
2023-04-15T01:11:12.091Z,73.21
2023-04-15T01:13:41.782Z,73.65
2023-04-15T01:16:13.139Z,74.14
2023-04-15T01:18:42.582Z,74.26
2023-04-15T01:21:11.843Z,74.35
2023-04-15T01:23:40.940Z,72.72
2023-04-15T01:26:11.339Z,75.11
2023-04-15T01:28:40.637Z,74.40
2023-04-15T01:31:10.772Z,74.44
2023-04-15T01:33:40.275Z,73.07
2023-04-15T01:36:27.980Z,72.92
2023-04-15T01:38:57.541Z,73.21
2023-04-15T01:41:30.329Z,73.21
2023-04-15T01:44:00.674Z,73.91
2023-04-15T01:46:30.842Z,73.13
2023-04-15T01:49:01.651Z,74.47
2023-04-15T01:51:32.100Z,74.54
2023-04-15T01:54:02.316Z,74.32
2023-04-15T01:56:35.210Z,74.71
2023-04-15T01:59:06.544Z,74.27
2023-04-15T02:01:36.547Z,74.27
2023-04-15T02:04:07.305Z,74.35
2023-04-15T02:06:37.322Z,73.95
2023-04-15T02:09:07.553Z,73.75
2023-04-15T02:11:39.318Z,73.95
2023-04-15T02:14:09.601Z,74.73
2023-04-15T02:16:39.878Z,73.30
2023-04-15T02:19:10.587Z,72.83
2023-04-15T02:21:41.060Z,72.89
2023-04-15T02:24:12.204Z,73.57
2023-04-15T02:26:46.718Z,73.17
2023-04-15T02:29:18.232Z,74.08
2023-04-15T02:31:48.568Z,73.64
2023-04-15T02:34:18.480Z,73.32
2023-04-15T02:36:54.977Z,73.70
2023-04-15T02:39:27.613Z,72.86
2023-04-15T02:42:00.185Z,73.57
2023-04-15T02:44:30.233Z,73.85
2023-04-15T02:47:00.954Z,74.02
2023-04-15T02:49:31.293Z,73.87
2023-04-15T02:52:01.693Z,73.58
2023-04-15T02:54:33.469Z,74.03
2023-04-15T02:57:06.831Z,74.10
2023-04-15T02:59:36.870Z,74.53
2023-04-15T03:02:07.884Z,74.03
2023-04-15T03:04:37.953Z,73.24
2023-04-15T03:07:08.457Z,74.22
2023-04-15T03:09:40.450Z,74.75
2023-04-15T03:12:12.302Z,74.97
2023-04-15T03:14:42.415Z,74.32
2023-04-15T03:17:12.706Z,74.62
2023-04-15T03:19:42.705Z,74.21
2023-04-15T03:22:13.343Z,74.64
2023-04-15T03:24:43.262Z,74.65
2023-04-15T03:27:15.459Z,75.19
2023-04-15T03:29:45.909Z,74.82
2023-04-15T03:32:17.056Z,74.65
2023-04-15T03:34:47.730Z,74.08
2023-04-15T03:37:19.099Z,74.80
2023-04-15T03:39:49.092Z,74.72
2023-04-15T03:42:20.648Z,74.05
2023-04-15T03:44:50.432Z,74.42
2023-04-15T03:47:20.636Z,74.07
2023-04-15T03:49:50.636Z,74.59
2023-04-15T03:52:21.060Z,74.69
2023-04-15T03:54:51.532Z,74.00
2023-04-15T03:57:23.176Z,74.29
2023-04-15T03:59:52.854Z,74.43
2023-04-15T04:02:23.528Z,75.39
2023-04-15T04:04:54.059Z,76.06
2023-04-15T04:07:24.798Z,75.45
2023-04-15T04:09:55.111Z,75.22
2023-04-15T04:12:26.492Z,75.32
2023-04-15T04:14:56.780Z,75.44
2023-04-15T04:17:26.745Z,75.07
2023-04-15T04:19:56.993Z,74.46
2023-04-15T04:22:26.981Z,74.87
2023-04-15T04:24:59.386Z,74.61
2023-04-15T04:27:32.226Z,74.55
2023-04-15T04:30:02.690Z,74.69
2023-04-15T04:32:35.424Z,74.41
2023-04-15T04:35:06.183Z,74.86
2023-04-15T04:37:36.229Z,75.46
2023-04-15T04:40:08.164Z,75.73
2023-04-15T04:42:40.113Z,75.41
2023-04-15T04:45:11.235Z,75.77
2023-04-15T04:47:41.219Z,74.87
2023-04-15T04:50:12.202Z,76.00
2023-04-15T04:52:42.265Z,76.01
2023-04-15T04:55:12.549Z,74.99
2023-04-15T04:57:43.927Z,75.14
2023-04-15T05:00:14.902Z,75.69
2023-04-15T05:02:45.164Z,75.54
2023-04-15T05:05:15.481Z,75.76
2023-04-15T05:07:46.195Z,75.46
2023-04-15T05:10:18.127Z,75.45
2023-04-15T05:12:49.495Z,75.62
2023-04-15T05:15:20.471Z,76.21
2023-04-15T05:17:50.496Z,76.01
2023-04-15T05:20:20.873Z,75.88
2023-04-15T05:22:50.823Z,75.66
2023-04-15T05:25:21.299Z,75.45
2023-04-15T05:27:52.690Z,74.30
2023-04-15T05:30:23.335Z,75.13
2023-04-15T05:32:53.452Z,74.77
2023-04-15T05:35:23.963Z,74.75
2023-04-15T05:37:53.870Z,73.38
2023-04-15T05:40:24.392Z,73.66
2023-04-15T05:42:56.258Z,73.38
2023-04-15T05:45:27.345Z,74.22
2023-04-15T05:47:57.578Z,73.52
2023-04-15T05:50:28.063Z,73.66
2023-04-15T05:52:58.019Z,73.74
2023-04-15T05:55:28.317Z,73.38
2023-04-15T05:57:59.607Z,73.61
2023-04-15T06:00:29.897Z,74.00
2023-04-15T06:03:00.387Z,73.99
2023-04-15T06:05:30.478Z,73.54
2023-04-15T06:08:00.739Z,73.54
2023-04-15T06:10:30.952Z,74.75
2023-04-15T06:13:02.575Z,73.21
2023-04-15T06:15:32.409Z,73.98
2023-04-15T06:18:03.288Z,73.75
2023-04-15T06:20:33.462Z,74.73
2023-04-15T06:23:03.753Z,73.64
2023-04-15T06:25:33.749Z,73.76
2023-04-15T06:28:06.078Z,73.46
2023-04-15T06:30:36.947Z,72.71
2023-04-15T06:33:07.512Z,72.16
2023-04-15T06:35:37.716Z,71.33
2023-04-15T06:38:07.973Z,70.40
2023-04-15T06:40:38.079Z,69.18
2023-04-15T06:43:10.369Z,69.11
2023-04-15T06:45:40.472Z,70.91
2023-04-15T06:48:10.795Z,69.06
2023-04-15T06:50:41.112Z,68.46
2023-04-15T06:53:11.481Z,68.13
2023-04-15T06:55:41.610Z,67.85
2023-04-15T06:58:13.255Z,67.96
2023-04-15T07:00:43.066Z,67.94
2023-04-15T07:03:13.868Z,66.39
2023-04-15T07:05:44.079Z,67.36
2023-04-15T07:08:14.794Z,67.96
2023-04-15T07:10:44.834Z,67.83
2023-04-15T07:13:16.555Z,67.12
2023-04-15T07:15:46.607Z,67.20
2023-04-15T07:18:16.863Z,66.98
2023-04-15T07:20:47.048Z,67.09
2023-04-15T07:23:17.496Z,66.38
2023-04-15T07:25:47.690Z,67.96
2023-04-15T07:28:20.040Z,65.47
2023-04-15T07:30:50.297Z,63.26
2023-04-15T07:33:20.593Z,62.51
2023-04-15T07:35:50.651Z,63.23
2023-04-15T07:38:20.904Z,62.55
2023-04-15T07:40:50.907Z,63.62
2023-04-15T07:43:22.699Z,63.25
2023-04-15T07:45:53.145Z,61.85
2023-04-15T07:48:23.448Z,62.37
2023-04-15T07:50:53.542Z,61.51
2023-04-15T07:53:24.049Z,60.74
2023-04-15T07:55:54.147Z,60.48
2023-04-15T07:58:25.855Z,60.24
2023-04-15T08:00:57.335Z,62.18
2023-04-15T08:03:27.700Z,60.36
2023-04-15T08:05:57.784Z,59.85
2023-04-15T08:08:28.092Z,59.68
2023-04-15T08:10:58.406Z,59.90
2023-04-15T08:13:30.047Z,61.38
2023-04-15T08:16:16.239Z,61.78
2023-04-15T08:18:47.362Z,61.71
2023-04-15T08:21:17.829Z,61.51
2023-04-15T08:23:49.700Z,59.76
2023-04-15T08:26:20.015Z,61.57
2023-04-15T08:28:52.428Z,60.46
2023-04-15T08:31:22.598Z,59.86
2023-04-15T08:33:54.514Z,60.41
2023-04-15T08:36:24.650Z,59.40
2023-04-15T08:38:54.948Z,57.79
2023-04-15T08:41:26.267Z,59.08
2023-04-15T08:44:00.396Z,59.61
2023-04-15T08:46:30.855Z,58.24
2023-04-15T08:49:02.094Z,59.55
2023-04-15T08:51:33.692Z,57.44
2023-04-15T08:54:04.922Z,57.62
2023-04-15T08:56:35.011Z,59.22
2023-04-15T08:59:07.129Z,59.94
2023-04-15T09:01:38.870Z,60.21
2023-04-15T09:04:12.528Z,59.22
2023-04-15T09:06:42.801Z,60.00
2023-04-15T09:09:14.496Z,59.99
2023-04-15T09:11:44.525Z,60.52
2023-04-15T09:14:16.604Z,58.45
2023-04-15T09:16:59.981Z,57.97
2023-04-15T09:19:31.589Z,56.11
2023-04-15T09:22:01.454Z,56.67
2023-04-15T09:24:38.610Z,56.72
2023-04-15T09:27:08.710Z,58.00
2023-04-15T09:29:42.766Z,57.84
2023-04-15T09:32:14.168Z,55.54
2023-04-15T09:34:44.746Z,55.74
2023-04-15T09:37:31.728Z,54.42
2023-04-15T09:40:02.513Z,57.22
2023-04-15T09:42:32.632Z,56.05
2023-04-15T09:45:12.137Z,54.84
2023-04-15T09:47:42.203Z,54.95
2023-04-15T09:50:12.558Z,54.93
2023-04-15T09:52:43.883Z,55.79
2023-04-15T09:55:15.091Z,57.44
2023-04-15T09:57:47.085Z,58.67
2023-04-15T10:00:18.996Z,59.28
2023-04-15T10:02:50.039Z,59.73
2023-04-15T10:05:20.692Z,59.63
2023-04-15T10:07:51.204Z,55.84
2023-04-15T10:10:21.677Z,56.83
2023-04-15T10:12:53.778Z,56.54
2023-04-15T10:15:26.041Z,56.72
2023-04-15T10:17:58.178Z,56.66
2023-04-15T10:20:28.880Z,56.14
2023-04-15T10:22:59.220Z,58.28
2023-04-15T10:25:29.988Z,57.82
2023-04-15T10:28:00.957Z,57.51
2023-04-15T10:30:32.953Z,58.03
2023-04-15T10:33:03.943Z,58.03
2023-04-15T10:35:35.068Z,59.21
2023-04-15T10:38:35.727Z,60.16
2023-04-15T10:41:17.946Z,59.11
2023-04-15T10:43:52.887Z,59.80
2023-04-15T10:46:25.924Z,59.08
2023-04-15T10:48:56.238Z,58.19
2023-04-15T10:51:31.274Z,59.19
2023-04-15T10:54:01.816Z,58.85
2023-04-15T10:56:32.128Z,60.24
2023-04-15T10:59:02.976Z,59.53
2023-04-15T11:01:54.774Z,61.78
2023-04-15T11:04:53.642Z,62.16
2023-04-15T11:07:39.640Z,61.88
2023-04-15T11:10:58.578Z,60.72
2023-04-15T11:13:31.406Z,62.21
2023-04-15T11:16:02.780Z,61.31
2023-04-15T11:18:38.438Z,60.17
2023-04-15T11:21:12.914Z,61.76
2023-04-15T11:23:49.652Z,62.54
2023-04-15T11:26:20.010Z,62.74
2023-04-15T11:28:50.184Z,61.04
2023-04-15T11:31:20.755Z,60.51
2023-04-15T11:33:58.239Z,59.76
2023-04-15T11:36:30.174Z,60.45
2023-04-15T11:39:00.976Z,61.09
2023-04-15T11:41:31.224Z,61.74
2023-04-15T11:44:01.465Z,60.20
2023-04-15T11:46:32.438Z,60.81
2023-04-15T11:49:05.048Z,60.67
2023-04-15T11:51:35.455Z,59.46
2023-04-15T11:54:04.586Z,58.12
2023-04-15T11:56:33.539Z,58.15
2023-04-15T11:59:03.076Z,57.69
2023-04-15T12:01:35.214Z,57.42
2023-04-15T12:04:12.813Z,57.31
2023-04-15T12:06:41.763Z,57.32
2023-04-15T12:09:12.322Z,58.59
2023-04-15T12:11:46.012Z,57.41
2023-04-15T12:14:22.778Z,57.74
2023-04-15T12:16:54.045Z,59.54
2023-04-15T12:19:29.421Z,58.65
2023-04-15T12:22:02.491Z,58.36
2023-04-15T12:24:33.193Z,59.05
2023-04-15T12:27:08.033Z,57.50
2023-04-15T12:29:38.418Z,56.07
2023-04-15T12:32:08.920Z,55.22
2023-04-15T12:34:41.409Z,55.00
2023-04-15T12:37:11.223Z,55.89
2023-04-15T12:39:42.415Z,56.56
2023-04-15T12:42:11.329Z,57.08
2023-04-15T12:44:40.825Z,54.66
2023-04-15T12:47:10.107Z,56.15
2023-04-15T12:49:40.930Z,56.58
2023-04-15T12:52:10.262Z,56.87
2023-04-15T12:54:39.022Z,56.36
2023-04-15T12:57:08.238Z,54.86
2023-04-15T12:59:37.652Z,54.27
2023-04-15T13:02:06.587Z,54.92
2023-04-15T13:04:35.705Z,54.28
2023-04-15T13:07:06.327Z,54.04
2023-04-15T13:09:35.293Z,56.18
2023-04-15T13:12:05.447Z,55.61
2023-04-15T13:14:34.399Z,54.79
2023-04-15T13:17:04.259Z,54.86
2023-04-15T13:19:33.159Z,56.19
2023-04-15T13:22:01.846Z,54.45
2023-04-15T13:24:32.028Z,55.20
2023-04-15T13:27:01.000Z,55.39
2023-04-15T13:29:29.686Z,55.04
2023-04-15T13:31:58.832Z,53.87
2023-04-15T13:34:27.956Z,53.54
2023-04-15T13:36:56.649Z,53.00
2023-04-15T13:39:25.650Z,53.43
2023-04-15T13:41:56.070Z,52.25
2023-04-15T13:44:24.762Z,53.28
2023-04-15T13:46:53.807Z,54.39
2023-04-15T13:49:22.731Z,55.14
2023-04-15T13:51:52.266Z,52.67
2023-04-15T13:54:20.949Z,51.50
2023-04-15T13:56:50.502Z,49.60
2023-04-15T13:59:22.016Z,49.40
2023-04-15T14:01:51.175Z,48.94
2023-04-15T14:04:20.670Z,48.80
2023-04-15T14:06:49.938Z,49.57
2023-04-15T14:09:18.786Z,50.51
2023-04-15T14:11:47.871Z,49.32
2023-04-15T14:14:16.770Z,49.43
2023-04-15T14:16:47.921Z,50.35
2023-04-15T14:19:17.278Z,51.04
2023-04-15T14:21:46.470Z,52.49
2023-04-15T14:24:15.431Z,52.71
2023-04-15T14:26:44.997Z,52.31
2023-04-15T14:29:14.490Z,52.93
2023-04-15T14:31:44.864Z,52.88
2023-04-15T14:34:35.385Z,52.92
2023-04-15T14:37:04.607Z,52.97
2023-04-15T14:39:34.021Z,53.59
2023-04-15T14:42:03.132Z,53.51
2023-04-15T14:47:05.977Z,53.17
2023-04-15T14:49:36.045Z,52.71
2023-04-15T14:52:05.402Z,53.71
2023-04-15T14:54:34.314Z,53.56
2023-04-15T14:57:05.628Z,56.00
2023-04-15T14:59:34.597Z,55.48
2023-04-15T15:02:04.294Z,55.46
2023-04-15T15:04:33.719Z,55.77
2023-04-15T15:07:04.287Z,56.00
2023-04-15T15:09:34.520Z,56.42
2023-04-15T15:12:04.024Z,56.10
2023-04-15T15:14:32.750Z,56.59
2023-04-15T15:17:01.566Z,55.99
2023-04-15T15:19:31.028Z,55.42
2023-04-15T15:22:00.332Z,56.12
2023-04-15T15:24:30.501Z,56.45
2023-04-15T15:26:59.867Z,56.46
2023-04-15T15:29:28.960Z,56.67
2023-04-15T15:31:57.762Z,56.25
2023-04-15T15:34:26.707Z,56.41
2023-04-15T15:36:56.930Z,57.69
2023-04-15T15:39:26.217Z,60.18
2023-04-15T15:41:56.634Z,61.41
2023-04-15T15:44:25.588Z,62.82
2023-04-15T15:46:55.390Z,64.37
2023-04-15T15:49:25.416Z,65.96
2023-04-15T15:51:54.380Z,67.48
2023-04-15T15:54:23.030Z,68.00
2023-04-15T15:56:51.713Z,68.52
2023-04-15T15:59:22.174Z,68.47
2023-04-15T16:01:50.938Z,69.31
2023-04-15T16:04:20.254Z,68.39
2023-04-15T16:06:49.801Z,69.67
2023-04-15T16:09:18.582Z,69.70
2023-04-15T16:11:47.508Z,70.09
2023-04-15T16:14:16.862Z,70.57
2023-04-15T16:16:46.913Z,71.07
2023-04-15T16:19:16.564Z,70.80
2023-04-15T16:21:46.104Z,69.52
2023-04-15T16:24:14.959Z,69.33
2023-04-15T16:26:43.895Z,70.44
2023-04-15T16:29:12.756Z,68.32
2023-04-15T16:31:41.872Z,67.76
2023-04-15T16:34:13.038Z,66.92
2023-04-15T16:36:42.012Z,67.41
2023-04-15T16:39:11.734Z,67.92
2023-04-15T16:41:41.579Z,68.49
2023-04-15T16:44:11.229Z,69.15
2023-04-15T16:46:41.040Z,69.33
2023-04-15T16:49:10.649Z,68.97
2023-04-15T16:51:41.133Z,68.54
2023-04-15T16:54:10.147Z,67.86
2023-04-15T16:56:38.864Z,67.37
2023-04-15T16:59:07.758Z,67.39
2023-04-15T17:01:36.934Z,66.75
2023-04-15T17:04:06.694Z,67.21
2023-04-15T17:06:35.957Z,67.46
2023-04-15T17:09:07.699Z,68.30
2023-04-15T17:11:41.861Z,67.38
2023-04-15T17:14:11.538Z,67.30
2023-04-15T17:16:43.571Z,67.82
2023-04-15T17:19:12.756Z,67.31
2023-04-15T17:21:47.009Z,67.66
2023-04-15T17:24:23.591Z,67.34
2023-04-15T17:26:57.826Z,67.51
2023-04-15T17:29:27.384Z,67.03
2023-04-15T17:31:58.642Z,66.05
2023-04-15T17:34:51.445Z,65.84
2023-04-15T17:37:20.814Z,65.05
2023-04-15T17:40:13.895Z,64.71
2023-04-15T17:43:03.253Z,65.88
2023-04-15T17:45:58.631Z,65.89
2023-04-15T17:48:47.998Z,65.80
2023-04-15T17:51:38.198Z,66.52
2023-04-15T17:54:28.607Z,66.49
2023-04-15T17:57:20.337Z,65.82
2023-04-15T18:00:12.174Z,67.09
2023-04-15T18:03:02.505Z,66.50
2023-04-15T18:05:51.876Z,66.91
2023-04-15T18:08:41.272Z,67.43
2023-04-15T18:11:31.284Z,67.57
2023-04-15T18:14:33.559Z,67.32
2023-04-15T18:17:24.482Z,67.37
2023-04-15T18:20:14.839Z,67.12
2023-04-15T18:22:51.059Z,67.12
2023-04-15T18:25:25.129Z,67.29
2023-04-15T18:27:57.012Z,67.64
2023-04-15T18:30:27.463Z,68.62
2023-04-15T18:32:56.892Z,67.81
2023-04-15T18:35:31.206Z,67.49
2023-04-15T18:38:01.557Z,68.33
2023-04-15T18:40:31.719Z,68.45
2023-04-15T18:43:01.530Z,68.75
2023-04-15T18:45:33.647Z,68.29
2023-04-15T18:48:04.307Z,68.13
2023-04-15T18:50:34.691Z,68.21
2023-04-15T18:53:03.666Z,68.67
2023-04-15T18:55:33.556Z,69.07
2023-04-15T18:58:09.050Z,68.72
2023-04-15T19:00:42.241Z,68.44
2023-04-15T19:03:12.772Z,68.47
2023-04-15T19:05:43.405Z,68.22
2023-04-15T19:08:13.372Z,68.06
2023-04-15T19:10:44.812Z,67.96
2023-04-15T19:13:14.183Z,68.28
2023-04-15T19:15:46.000Z,68.73
2023-04-15T19:18:16.666Z,68.45
2023-04-15T19:20:47.799Z,68.42
2023-04-15T19:23:17.038Z,69.16
2023-04-15T19:25:48.676Z,69.53
2023-04-15T19:28:20.824Z,69.37
2023-04-15T19:30:52.589Z,69.65
2023-04-15T19:33:22.360Z,69.64
2023-04-15T19:35:53.257Z,70.17
2023-04-15T19:38:23.877Z,69.92
2023-04-15T19:40:55.065Z,69.51
2023-04-15T19:43:25.199Z,69.70
2023-04-15T19:45:56.608Z,69.96
2023-04-15T19:48:26.937Z,70.27
2023-04-15T19:51:00.401Z,69.39
2023-04-15T19:53:31.211Z,69.41
2023-04-15T19:56:02.567Z,69.46
2023-04-15T19:58:33.016Z,69.58
2023-04-15T20:01:04.187Z,69.68
2023-04-15T20:03:34.111Z,69.58
2023-04-15T20:06:04.040Z,69.42
2023-04-15T20:08:33.421Z,70.04
2023-04-15T20:11:03.287Z,70.26
2023-04-15T20:13:33.925Z,70.88
2023-04-15T20:16:08.051Z,70.09
2023-04-15T20:18:37.759Z,70.35
2023-04-15T20:21:08.258Z,70.59
2023-04-15T20:23:38.795Z,70.68
2023-04-15T20:26:10.121Z,70.22
2023-04-15T20:28:38.794Z,70.19
2023-04-15T20:31:10.833Z,69.81
2023-04-15T20:33:40.280Z,69.71
2023-04-15T20:36:09.840Z,69.97
2023-04-15T20:38:38.946Z,69.91
2023-04-15T20:41:08.447Z,69.99
2023-04-15T20:43:38.866Z,70.04
2023-04-15T20:46:20.432Z,69.89
2023-04-15T20:48:50.975Z,70.06
2023-04-15T20:51:20.307Z,70.09
2023-04-15T20:53:49.271Z,70.73
2023-04-15T20:56:18.219Z,70.29
2023-04-15T20:58:46.995Z,70.70
2023-04-15T21:01:17.788Z,69.67
2023-04-15T21:03:48.368Z,69.54
2023-04-15T21:06:18.294Z,69.87
2023-04-15T21:08:47.277Z,70.79
2023-04-15T21:11:25.712Z,70.60
2023-04-15T21:14:08.717Z,70.65
2023-04-15T21:16:41.495Z,70.13
2023-04-15T21:19:10.853Z,70.42
2023-04-15T21:21:39.851Z,70.66
2023-04-15T21:24:08.763Z,70.04
2023-04-15T21:26:37.808Z,69.66
2023-04-15T21:29:08.669Z,70.13
2023-04-15T21:31:41.383Z,70.67
2023-04-15T21:34:10.447Z,70.78
2023-04-15T21:36:39.721Z,69.71
2023-04-15T21:39:08.489Z,68.69
2023-04-15T21:41:37.863Z,70.95
2023-04-15T21:44:07.151Z,70.30
2023-04-15T21:46:36.346Z,70.65
2023-04-15T21:49:07.441Z,70.27
2023-04-15T21:51:36.385Z,70.36
2023-04-15T21:54:05.138Z,70.61
2023-04-15T21:56:33.899Z,71.07
2023-04-15T21:59:03.011Z,70.80
2023-04-15T22:01:32.175Z,70.95
2023-04-15T22:04:01.386Z,70.78
2023-04-15T22:06:31.712Z,71.06
2023-04-15T22:09:00.381Z,70.99
2023-04-15T22:11:30.848Z,71.98
2023-04-15T22:13:59.837Z,70.48
2023-04-15T22:16:29.068Z,71.20
2023-04-15T22:18:58.078Z,70.96
2023-04-15T22:21:26.850Z,70.42
2023-04-15T22:24:31.631Z,70.52
2023-04-15T22:26:45.959Z,70.22
2023-04-15T22:29:14.735Z,70.46
2023-04-15T22:31:43.891Z,70.45
2023-04-15T22:34:14.821Z,70.66
2023-04-15T22:36:43.519Z,70.73
2023-04-15T22:39:13.568Z,71.31
2023-04-15T22:41:42.863Z,71.60
2023-04-15T22:44:11.882Z,71.33
2023-04-15T22:46:40.721Z,71.32
2023-04-15T22:49:11.007Z,70.67
2023-04-15T22:51:39.704Z,70.95
2023-04-15T22:54:08.421Z,70.92
2023-04-15T22:56:38.671Z,70.51
2023-04-15T22:59:07.731Z,70.46
2023-04-15T23:01:38.230Z,70.25
2023-04-15T23:04:09.076Z,70.10
2023-04-15T23:06:56.179Z,70.62
2023-04-15T23:09:25.295Z,69.65
2023-04-15T23:11:56.709Z,69.41
2023-04-15T23:14:27.990Z,70.16
2023-04-15T23:16:58.489Z,69.87
2023-04-15T23:19:27.480Z,69.35
2023-04-15T23:21:56.415Z,69.82
2023-04-15T23:24:25.126Z,69.79
2023-04-15T23:26:57.287Z,69.59
2023-04-15T23:29:26.178Z,69.57
2023-04-15T23:31:55.235Z,69.55
2023-04-15T23:34:23.988Z,69.32
2023-04-15T23:36:52.663Z,69.59
2023-04-15T23:39:21.680Z,70.12
2023-04-15T23:41:50.300Z,69.71
2023-04-15T23:44:20.368Z,69.16
2023-04-15T23:46:49.399Z,70.47
2023-04-15T23:49:20.236Z,69.12
2023-04-15T23:51:49.290Z,69.66
2023-04-15T23:54:17.876Z,69.26
2023-04-15T23:56:46.617Z,70.02
2023-04-15T23:59:15.570Z,69.68
